createdAt,value
2022-12-03T00:01:24.899Z,19.22
2022-12-03T00:04:28.185Z,19.27
2022-12-03T00:07:31.036Z,19.21
2022-12-03T00:10:33.737Z,19.21
2022-12-03T00:13:37.822Z,19.24
2022-12-03T00:16:40.601Z,19.16
2022-12-03T00:19:43.329Z,19.22
2022-12-03T00:22:46.154Z,19.15
2022-12-03T00:25:48.916Z,19.17
2022-12-03T00:28:54.846Z,19.20
2022-12-03T00:31:57.592Z,19.17
2022-12-03T00:35:00.361Z,19.18
2022-12-03T00:38:03.133Z,19.16
2022-12-03T00:41:06.013Z,19.11
2022-12-03T00:44:12.012Z,19.15
2022-12-03T00:47:14.821Z,19.12
2022-12-03T00:50:17.805Z,19.11
2022-12-03T00:53:20.585Z,19.13
2022-12-03T00:56:23.328Z,19.11
2022-12-03T00:59:27.693Z,19.11
2022-12-03T01:02:30.482Z,19.11
2022-12-03T01:05:33.220Z,19.11
2022-12-03T01:08:36.038Z,19.11
2022-12-03T01:11:38.747Z,19.14
2022-12-03T01:14:42.922Z,19.10
2022-12-03T01:17:45.749Z,19.08
2022-12-03T01:20:48.520Z,19.14
2022-12-03T01:23:51.315Z,19.11
2022-12-03T01:26:55.867Z,19.06
2022-12-03T01:29:59.962Z,18.99
2022-12-03T01:33:01.766Z,18.92
2022-12-03T01:36:04.692Z,18.86
2022-12-03T01:39:07.494Z,18.85
2022-12-03T01:42:13.069Z,18.77
2022-12-03T01:45:22.306Z,18.70
2022-12-03T01:48:25.227Z,18.66
2022-12-03T01:51:27.981Z,18.60
2022-12-03T01:54:34.943Z,18.57
2022-12-03T01:57:42.140Z,18.48
2022-12-03T02:00:46.278Z,18.45
2022-12-03T02:03:49.053Z,18.40
2022-12-03T02:06:51.950Z,18.36
2022-12-03T02:09:55.263Z,18.32
2022-12-03T02:12:59.342Z,18.28
2022-12-03T02:16:04.309Z,18.26
2022-12-03T02:19:11.307Z,18.23
2022-12-03T02:22:18.054Z,18.17
2022-12-03T02:25:24.262Z,18.17
2022-12-03T02:28:27.004Z,18.10
2022-12-03T02:31:29.977Z,18.07
2022-12-03T02:34:36.985Z,18.05
2022-12-03T02:37:39.790Z,18.09
2022-12-03T02:40:44.963Z,18.21
2022-12-03T02:43:47.706Z,18.29
2022-12-03T02:46:50.506Z,18.34
2022-12-03T02:49:53.771Z,18.47
2022-12-03T02:52:57.354Z,18.51
2022-12-03T02:56:02.835Z,18.52
2022-12-03T02:59:06.914Z,18.60
2022-12-03T03:02:11.648Z,18.58
2022-12-03T03:05:16.312Z,18.59
2022-12-03T03:08:19.847Z,18.62
2022-12-03T03:11:24.292Z,18.63
2022-12-03T03:14:27.028Z,18.66
2022-12-03T03:17:29.814Z,18.67
2022-12-03T03:20:32.607Z,18.70
2022-12-03T03:23:35.425Z,18.69
2022-12-03T03:26:39.607Z,18.73
2022-12-03T03:29:42.391Z,18.76
2022-12-03T03:32:45.196Z,18.75
2022-12-03T03:35:49.433Z,18.73
2022-12-03T03:38:52.141Z,18.77
2022-12-03T03:41:56.306Z,18.73
2022-12-03T03:44:59.500Z,18.74
2022-12-03T03:48:02.618Z,18.78
2022-12-03T03:51:09.607Z,18.77
2022-12-03T03:54:12.578Z,18.76
2022-12-03T03:57:16.891Z,18.81
2022-12-03T04:00:20.122Z,18.80
2022-12-03T04:03:22.941Z,18.78
2022-12-03T04:06:25.748Z,18.84
2022-12-03T04:09:28.569Z,18.81
2022-12-03T04:12:50.403Z,18.80
2022-12-03T04:15:53.197Z,18.83
2022-12-03T04:18:56.053Z,18.80
2022-12-03T04:22:16.152Z,18.81
2022-12-03T04:25:32.846Z,18.84
2022-12-03T04:28:52.004Z,18.83
2022-12-03T04:32:12.505Z,18.86
2022-12-03T04:35:32.923Z,18.95
2022-12-03T04:38:35.721Z,18.98
2022-12-03T04:41:38.501Z,18.93
2022-12-03T04:44:42.660Z,18.88
2022-12-03T04:47:45.419Z,18.92
2022-12-03T04:50:48.207Z,18.88
2022-12-03T04:53:50.982Z,18.86
2022-12-03T04:56:53.798Z,18.89
2022-12-03T04:59:57.929Z,18.86
2022-12-03T05:03:00.758Z,18.86
2022-12-03T05:06:04.143Z,18.94
2022-12-03T05:09:06.833Z,18.88
2022-12-03T05:12:09.688Z,18.92
2022-12-03T05:15:13.814Z,18.92
2022-12-03T05:18:16.712Z,18.91
2022-12-03T05:21:19.450Z,18.96
2022-12-03T05:24:22.225Z,18.97
2022-12-03T05:27:25.695Z,18.94
2022-12-03T05:30:29.828Z,18.91
2022-12-03T05:33:32.628Z,18.95
2022-12-03T05:36:35.421Z,18.96
2022-12-03T05:39:38.234Z,19.00
2022-12-03T05:42:57.129Z,18.94
2022-12-03T05:46:01.379Z,18.97
2022-12-03T05:49:04.153Z,18.98
2022-12-03T05:52:06.977Z,18.93
2022-12-03T05:55:10.141Z,18.97
2022-12-03T05:58:13.077Z,19.00
2022-12-03T06:01:17.221Z,18.98
2022-12-03T06:04:19.991Z,19.01
2022-12-03T06:07:22.726Z,18.99
2022-12-03T06:10:26.375Z,18.98
2022-12-03T06:13:29.158Z,19.02
2022-12-03T06:16:33.454Z,18.98
2022-12-03T06:19:36.222Z,19.02
2022-12-03T06:22:39.028Z,19.01
2022-12-03T06:25:41.813Z,19.00
2022-12-03T06:28:46.489Z,19.01
2022-12-03T06:31:50.601Z,19.03
2022-12-03T06:34:53.526Z,19.01
2022-12-03T06:37:56.357Z,19.02
2022-12-03T06:40:59.179Z,18.99
2022-12-03T06:44:01.928Z,18.98
2022-12-03T06:47:06.097Z,19.00
2022-12-03T06:50:09.606Z,19.04
2022-12-03T06:53:12.295Z,19.02
2022-12-03T06:56:17.814Z,19.03
2022-12-03T06:59:22.902Z,19.02
2022-12-03T07:02:27.136Z,19.03
2022-12-03T07:05:29.942Z,19.02
2022-12-03T07:08:32.685Z,19.03
2022-12-03T07:11:40.532Z,19.03
2022-12-03T07:14:43.443Z,19.05
2022-12-03T07:17:47.533Z,19.02
2022-12-03T07:20:50.317Z,19.05
2022-12-03T07:23:53.070Z,19.06
2022-12-03T07:26:55.959Z,19.01
2022-12-03T07:29:58.795Z,19.07
2022-12-03T07:33:02.911Z,19.04
2022-12-03T07:36:05.729Z,19.04
2022-12-03T07:39:08.586Z,19.10
2022-12-03T07:42:11.379Z,19.08
2022-12-03T07:45:14.121Z,19.08
2022-12-03T07:48:18.302Z,19.11
2022-12-03T07:51:21.018Z,19.06
2022-12-03T07:54:24.214Z,19.09
2022-12-03T07:57:27.035Z,19.08
2022-12-03T08:00:29.909Z,19.05
2022-12-03T08:03:34.188Z,19.13
2022-12-03T08:06:36.935Z,19.15
2022-12-03T08:09:41.050Z,19.11
2022-12-03T08:12:43.842Z,19.08
2022-12-03T08:15:46.843Z,19.07
2022-12-03T08:18:51.382Z,19.08
2022-12-03T08:21:59.530Z,19.11
2022-12-03T08:25:03.917Z,19.12
2022-12-03T08:28:12.196Z,19.11
2022-12-03T08:31:19.910Z,19.14
2022-12-03T08:34:25.246Z,19.07
2022-12-03T08:37:30.872Z,19.11
2022-12-03T08:40:35.370Z,19.12
2022-12-03T08:43:42.072Z,19.09
2022-12-03T08:46:45.189Z,19.14
2022-12-03T08:49:52.615Z,19.10
2022-12-03T08:52:58.923Z,19.10
2022-12-03T08:56:02.553Z,19.13
2022-12-03T08:59:22.500Z,19.15
2022-12-03T09:02:29.658Z,19.14
2022-12-03T09:05:33.834Z,19.14
2022-12-03T09:08:37.617Z,19.12
2022-12-03T09:11:40.460Z,19.10
2022-12-03T09:14:43.261Z,19.24
2022-12-03T09:17:46.079Z,19.16
2022-12-03T09:20:50.198Z,19.17
2022-12-03T09:23:52.961Z,19.14
2022-12-03T09:26:55.748Z,19.14
2022-12-03T09:29:58.612Z,19.17
2022-12-03T09:33:01.401Z,19.16
2022-12-03T09:36:06.564Z,19.14
2022-12-03T09:39:09.333Z,19.31
2022-12-03T09:42:13.175Z,19.08
2022-12-03T09:45:16.899Z,18.98
2022-12-03T09:48:20.178Z,18.93
2022-12-03T09:51:24.938Z,18.89
2022-12-03T09:54:28.638Z,18.82
2022-12-03T09:57:32.042Z,18.76
2022-12-03T10:00:34.806Z,18.74
2022-12-03T10:03:39.766Z,18.71
2022-12-03T10:06:46.049Z,18.67
2022-12-03T10:09:49.196Z,18.60
2022-12-03T10:12:52.966Z,18.55
2022-12-03T10:15:57.131Z,18.49
2022-12-03T10:19:01.601Z,18.44
2022-12-03T10:22:05.807Z,18.38
2022-12-03T10:25:10.832Z,18.34
2022-12-03T10:28:13.611Z,18.34
2022-12-03T10:31:16.715Z,18.26
2022-12-03T10:34:25.089Z,18.24
2022-12-03T10:37:29.257Z,18.25
2022-12-03T10:40:33.233Z,18.21
2022-12-03T10:43:36.026Z,18.18
2022-12-03T10:46:38.912Z,18.14
2022-12-03T10:49:42.549Z,18.13
2022-12-03T10:52:46.976Z,18.07
2022-12-03T10:55:51.328Z,18.06
2022-12-03T10:58:54.479Z,18.00
2022-12-03T11:01:57.267Z,17.99
2022-12-03T11:05:00.155Z,17.94
2022-12-03T11:08:04.999Z,17.92
2022-12-03T11:11:08.781Z,17.88
2022-12-03T11:14:45.336Z,17.87
2022-12-03T11:17:51.788Z,17.92
2022-12-03T11:21:12.589Z,17.96
2022-12-03T11:24:21.344Z,18.05
2022-12-03T11:27:24.232Z,18.10
2022-12-03T11:30:41.937Z,18.18
2022-12-03T11:33:44.817Z,18.26
2022-12-03T11:37:02.453Z,18.35
2022-12-03T11:40:32.377Z,18.39
2022-12-03T11:43:56.396Z,18.45
2022-12-03T11:47:10.099Z,18.49
2022-12-03T11:50:21.520Z,18.49
2022-12-03T11:53:26.075Z,18.57
2022-12-03T11:56:29.355Z,18.57
2022-12-03T11:59:32.066Z,18.60
2022-12-03T12:02:36.227Z,18.61
2022-12-03T12:05:39.151Z,18.65
2022-12-03T12:08:42.987Z,18.72
2022-12-03T12:11:45.836Z,18.68
2022-12-03T12:14:48.586Z,18.69
2022-12-03T12:17:52.723Z,18.71
2022-12-03T12:20:55.483Z,18.71
2022-12-03T12:23:58.246Z,18.71
2022-12-03T12:27:02.736Z,18.75
2022-12-03T12:30:06.746Z,18.72
2022-12-03T12:33:19.137Z,18.76
2022-12-03T12:36:21.901Z,18.77
2022-12-03T12:39:24.706Z,18.77
2022-12-03T12:42:31.852Z,18.78
2022-12-03T12:45:35.918Z,18.86
2022-12-03T12:48:40.252Z,18.80
2022-12-03T12:51:45.371Z,18.84
2022-12-03T12:54:48.149Z,18.84
2022-12-03T12:57:51.022Z,18.82
2022-12-03T13:00:54.971Z,18.83
2022-12-03T13:03:59.719Z,18.80
2022-12-03T13:07:02.521Z,18.91
2022-12-03T13:10:20.576Z,18.97
2022-12-03T13:13:25.262Z,19.14
2022-12-03T13:16:30.158Z,19.28
2022-12-03T13:19:46.629Z,19.15
2022-12-03T13:22:51.229Z,19.31
2022-12-03T13:26:09.859Z,19.17
2022-12-03T13:29:18.229Z,19.12
2022-12-03T13:32:22.284Z,19.20
2022-12-03T13:35:30.351Z,19.11
2022-12-03T13:38:33.115Z,19.23
2022-12-03T13:41:53.525Z,19.23
2022-12-03T13:44:57.950Z,19.25
2022-12-03T13:48:01.737Z,18.48
2022-12-03T13:51:16.345Z,18.50
2022-12-03T13:54:23.955Z,18.14
2022-12-03T13:57:27.156Z,18.09
2022-12-03T14:00:30.007Z,18.12
2022-12-03T14:03:32.852Z,18.01
2022-12-03T14:06:36.955Z,17.90
2022-12-03T14:09:39.737Z,17.80
2022-12-03T14:12:42.448Z,18.04
2022-12-03T14:15:45.248Z,18.31
2022-12-03T14:18:48.078Z,18.34
2022-12-03T14:21:52.172Z,18.67
2022-12-03T14:24:56.004Z,18.54
2022-12-03T14:28:00.796Z,18.70
2022-12-03T14:31:04.479Z,18.52
2022-12-03T14:34:07.302Z,18.49
2022-12-03T14:37:11.493Z,18.45
2022-12-03T14:40:21.003Z,18.42
2022-12-03T14:43:24.361Z,18.38
2022-12-03T14:46:27.194Z,18.33
2022-12-03T14:49:30.073Z,18.30
2022-12-03T14:52:34.142Z,18.28
2022-12-03T14:55:36.959Z,18.29
2022-12-03T14:58:39.723Z,18.32
2022-12-03T15:01:42.555Z,18.23
2022-12-03T15:04:45.441Z,18.22
2022-12-03T15:07:49.606Z,18.18
2022-12-03T15:10:52.410Z,18.14
2022-12-03T15:13:55.211Z,18.06
2022-12-03T15:16:58.104Z,18.03
2022-12-03T15:20:00.964Z,17.99
2022-12-03T15:23:06.308Z,18.00
2022-12-03T15:26:10.652Z,18.07
2022-12-03T15:29:13.566Z,18.14
2022-12-03T15:32:16.305Z,18.24
2022-12-03T15:35:19.109Z,18.42
2022-12-03T15:41:43.649Z,18.47
2022-12-03T15:44:46.405Z,18.63
2022-12-03T15:47:49.262Z,18.66
2022-12-03T15:50:52.086Z,18.57
2022-12-03T15:53:56.263Z,18.62
2022-12-03T15:56:59.028Z,18.63
2022-12-03T16:00:01.797Z,18.71
2022-12-03T16:03:04.649Z,18.69
2022-12-03T16:06:07.717Z,18.69
2022-12-03T16:09:11.809Z,18.75
2022-12-03T16:12:14.564Z,18.77
2022-12-03T16:15:19.935Z,18.72
2022-12-03T16:18:26.421Z,18.73
2022-12-03T16:21:29.172Z,18.74
2022-12-03T16:24:33.993Z,18.75
2022-12-03T16:27:38.086Z,18.81
2022-12-03T16:30:41.119Z,18.76
2022-12-03T16:33:43.899Z,18.79
2022-12-03T16:36:46.872Z,18.83
2022-12-03T16:43:11.408Z,18.81
2022-12-03T16:46:26.319Z,18.83
2022-12-03T16:49:30.096Z,18.78
2022-12-03T16:52:32.878Z,18.82
2022-12-03T16:55:37.053Z,18.83
2022-12-03T16:58:39.850Z,18.78
2022-12-03T17:01:42.701Z,18.85
2022-12-03T17:04:45.554Z,18.83
2022-12-03T17:07:48.435Z,18.84
2022-12-03T17:10:52.665Z,18.82
2022-12-03T17:13:55.474Z,18.83
2022-12-03T17:16:58.227Z,18.88
2022-12-03T17:20:01.040Z,19.03
2022-12-03T17:23:03.849Z,18.91
2022-12-03T17:26:09.025Z,18.90
2022-12-03T17:29:11.742Z,18.92
2022-12-03T17:32:15.610Z,19.04
2022-12-03T17:35:18.715Z,19.05
2022-12-03T17:38:21.532Z,18.97
2022-12-03T17:41:26.317Z,18.93
2022-12-03T17:44:29.081Z,19.00
2022-12-03T17:47:31.832Z,18.92
2022-12-03T17:50:35.654Z,18.96
2022-12-03T17:53:38.443Z,19.00
2022-12-03T17:56:44.039Z,18.96
2022-12-03T17:59:46.803Z,18.99
2022-12-03T18:02:49.611Z,18.96
2022-12-03T18:05:52.446Z,18.94
2022-12-03T18:08:55.261Z,18.98
2022-12-03T18:11:59.663Z,18.96
2022-12-03T18:15:02.474Z,18.93
2022-12-03T18:18:05.416Z,18.99
2022-12-03T18:21:08.368Z,18.97
2022-12-03T18:24:11.400Z,18.96
2022-12-03T18:27:15.678Z,19.00
2022-12-03T18:30:18.485Z,18.98
2022-12-03T18:33:21.516Z,18.98
2022-12-03T18:36:26.167Z,19.00
2022-12-03T18:39:31.878Z,18.98
2022-12-03T18:42:35.973Z,19.01
2022-12-03T18:45:40.137Z,19.00
2022-12-03T18:48:45.588Z,18.97
2022-12-03T18:51:48.954Z,19.02
2022-12-03T18:54:52.582Z,18.99
2022-12-03T18:57:56.774Z,19.01
2022-12-03T19:00:59.889Z,19.02
2022-12-03T19:04:02.767Z,19.02
2022-12-03T19:07:06.749Z,19.02
2022-12-03T19:10:10.299Z,19.04
2022-12-03T19:13:14.411Z,19.00
2022-12-03T19:16:17.513Z,19.03
2022-12-03T19:19:20.328Z,19.02
2022-12-03T19:22:23.400Z,19.10
2022-12-03T19:25:28.512Z,19.14
2022-12-03T19:28:32.663Z,19.08
2022-12-03T19:31:35.540Z,19.06
2022-12-03T19:34:38.418Z,19.09
2022-12-03T19:37:41.235Z,19.07
2022-12-03T19:40:44.041Z,18.98
2022-12-03T19:43:51.254Z,18.91
2022-12-03T19:46:56.583Z,19.01
2022-12-03T19:49:59.367Z,18.88
2022-12-03T19:53:02.168Z,18.77
2022-12-03T19:56:07.332Z,18.70
2022-12-03T19:59:12.390Z,18.65
2022-12-03T20:02:15.218Z,18.58
2022-12-03T20:05:18.161Z,18.54
2022-12-03T20:08:20.910Z,18.50
2022-12-03T20:11:24.670Z,18.52
2022-12-03T20:14:29.376Z,18.57
2022-12-03T20:17:32.467Z,18.59
2022-12-03T20:20:35.197Z,18.63
2022-12-03T20:23:38.050Z,18.75
2022-12-03T20:26:40.760Z,18.74
2022-12-03T20:29:44.933Z,18.78
2022-12-03T20:32:48.709Z,18.78
2022-12-03T20:35:52.656Z,18.79
2022-12-03T20:38:56.015Z,18.85
2022-12-03T20:41:58.812Z,18.80
2022-12-03T20:45:02.977Z,18.84
2022-12-03T20:48:05.866Z,18.85
2022-12-03T20:51:10.203Z,18.82
2022-12-03T20:54:12.904Z,18.87
2022-12-03T20:57:15.719Z,18.88
2022-12-03T21:00:20.313Z,18.87
2022-12-03T21:03:23.463Z,18.94
2022-12-03T21:06:27.035Z,18.87
2022-12-03T21:09:29.854Z,19.04
2022-12-03T21:12:32.599Z,19.02
2022-12-03T21:15:36.773Z,18.96
2022-12-03T21:18:39.943Z,18.93
2022-12-03T21:21:42.737Z,18.99
2022-12-03T21:24:45.539Z,18.95
2022-12-03T21:27:48.262Z,18.95
2022-12-03T21:30:52.476Z,19.00
2022-12-03T21:33:55.768Z,18.95
2022-12-03T21:36:58.498Z,18.95
2022-12-03T21:40:01.282Z,18.98
2022-12-03T21:43:04.092Z,18.96
2022-12-03T21:47:12.281Z,18.99
2022-12-03T21:49:31.767Z,18.97
2022-12-03T21:52:35.016Z,18.97
2022-12-03T21:55:39.240Z,19.01
2022-12-03T21:58:42.020Z,18.95
2022-12-03T22:01:47.536Z,19.00
2022-12-03T22:04:50.858Z,19.03
2022-12-03T22:07:53.678Z,18.99
2022-12-03T22:10:56.492Z,19.04
2022-12-03T22:13:59.308Z,18.98
2022-12-03T22:17:03.549Z,18.97
2022-12-03T22:20:07.041Z,19.03
2022-12-03T22:23:09.798Z,18.95
2022-12-03T22:26:13.645Z,18.99
2022-12-03T22:29:16.406Z,19.00
2022-12-03T22:32:20.543Z,18.98
2022-12-03T22:35:23.275Z,19.00
2022-12-03T22:38:26.382Z,19.03
2022-12-03T22:41:29.153Z,19.02
2022-12-03T22:44:32.066Z,19.09
2022-12-03T22:47:36.215Z,19.02
2022-12-03T22:50:42.184Z,19.03
2022-12-03T22:53:44.992Z,19.04
2022-12-03T22:56:49.771Z,19.03
2022-12-03T22:59:52.659Z,19.06
2022-12-03T23:02:57.122Z,19.10
2022-12-03T23:06:00.022Z,19.04
2022-12-03T23:09:03.227Z,19.04
2022-12-03T23:12:07.503Z,19.05
2022-12-03T23:15:10.904Z,19.04
2022-12-03T23:18:15.071Z,19.06
2022-12-03T23:21:21.530Z,19.04
2022-12-03T23:24:27.282Z,19.06
2022-12-03T23:27:30.048Z,19.04
2022-12-03T23:30:36.006Z,19.04
2022-12-03T23:33:40.127Z,19.03
2022-12-03T23:36:42.883Z,19.05
2022-12-03T23:39:45.680Z,19.00
2022-12-03T23:42:48.445Z,19.03
2022-12-03T23:45:51.221Z,19.01
2022-12-03T23:48:55.837Z,18.98
2022-12-03T23:51:58.565Z,19.01
2022-12-03T23:55:01.324Z,19.00
2022-12-03T23:58:04.139Z,18.96
